Pioneer Knutsen — LMIK — position and weather

sailwx.info

Track history (hours):
 
Tides and Currents Weather Stations Pressure Air Temp Water Temp Dewpoint Dewpoint Depression Visibility Wind Speed Wind Dir Waves Ship Positions

Pioneer Knutsen

Last reported at 2017-Dec-16 06:30 UTC. Time now 2017-Dec-16 06:53 UTC.
Position N 65°44' E 012°18'.

Length 70 m; draft 3.6 m.

Type: Ship. MMSI: 259393000.

Date/timePositionNaut miles runAvg speedWind from/ knotsBaromVisibWave heightAir tempDewpointWater temp
2017-Dec-16 06:30N 65°44' E 012°18'612.7
2017-Dec-16 06:00N 65°39' E 012°13'612.4
2017-Dec-16 05:30N 65°33' E 012°05'612.3
2017-Dec-16 05:00N 65°28' E 011°58'510.9
2017-Dec-16 04:30N 65°22' E 012°00'5 9.4
2017-Dec-16 04:00N 65°18' E 011°59'612.3
2017-Dec-16 03:30N 65°12' E 011°53'612.4
2017-Dec-16 03:00N 65°06' E 011°48'612.2
2017-Dec-16 02:30N 65°01' E 011°41'611.6
2017-Dec-16 02:00N 64°57' E 011°31'611.9
2017-Dec-16 01:30N 64°54' E 011°20'611.2
2017-Dec-16 01:00N 64°50' E 011°10'612.4
2017-Dec-16 00:30N 64°45' E 011°00'612.0
2017-Dec-16 00:00N 64°41' E 010°49'612.5
2017-Dec-15 23:30N 64°37' E 010°40'612.2
2017-Dec-15 23:00N 64°32' E 010°31'611.9
2017-Dec-15 22:30N 64°26' E 010°27'611.2
2017-Dec-15 22:00N 64°21' E 010°27'611.2
2017-Dec-15 21:30N 64°16' E 010°19'611.7
2017-Dec-15 20:59N 64°11' E 010°10'612.1
2017-Dec-15 20:30N 64°07' E 010°02'612.3
2017-Dec-15 20:00N 64°03' E 009°50'611.5
2017-Dec-15 19:30N 63°58' E 009°47'611.4
2017-Dec-15 19:00N 63°52' E 009°43'612.4
2017-Dec-15 18:30N 63°47' E 009°34'612.1
2017-Dec-15 18:00N 63°42' E 009°30'611.6
2017-Dec-15 17:30N 63°36' E 009°27'612.0
2017-Dec-15 17:00N 63°33' E 009°16'612.6
2017-Dec-15 16:30N 63°30' E 009°04'612.1
2017-Dec-15 16:00N 63°27' E 008°51'612.0
2017-Dec-15 15:30N 63°25' E 008°39'612.1
2017-Dec-15 15:00N 63°22' E 008°27'612.3
2017-Dec-15 14:30N 63°19' E 008°16'612.2
2017-Dec-15 14:00N 63°15' E 008°05'612.3
2017-Dec-15 13:30N 63°12' E 007°53'611.8
2017-Dec-15 13:00N 63°09' E 007°42'612.4
2017-Dec-15 12:30N 63°06' E 007°30'612.1
2017-Dec-15 12:00N 63°03' E 007°19'612.5
2017-Dec-15 11:30N 63°01' E 007°05'612.5
2017-Dec-15 11:00N 62°59' E 006°52'612.3
2017-Dec-15 10:30N 62°54' E 006°45'612.8
2017-Dec-15 10:00N 62°48' E 006°37'612.6
2017-Dec-15 09:30N 62°43' E 006°30'612.8
2017-Dec-15 09:00N 62°38' E 006°21'612.3
2017-Dec-15 08:30N 62°34' E 006°12'611.5
2017-Dec-15 08:00N 62°29' E 006°05'510.9
2017-Dec-15 07:30N 62°23' E 006°06'510.1
2017-Dec-15 07:00N 62°18' E 006°03'612.0
2017-Dec-15 06:30N 62°14' E 005°55'611.7
2017-Dec-15 06:00N 62°11' E 005°43'611.3
2017-Dec-15 05:29N 62°12' E 005°31'510.6
2017-Dec-15 05:00N 62°11' E 005°20'511.1
2017-Dec-15 04:30N 62°14' E 005°10'510.1
2017-Dec-15 04:00N 62°09' E 005°04'1711.1
2017-Dec-15 02:30N 61°53' E 005°10'12 8.3
2017-Dec-15 01:00N 61°42' E 004°58'511.1
2017-Dec-15 00:30N 61°37' E 004°58'58 9.6
2017-Dec-14 18:30N 60°39' E 004°53'611.4
2017-Dec-14 18:00N 60°33' E 004°54'0 0.9
2017-Dec-14 17:29N 60°33' E 004°53'0 0.0
2017-Dec-14 16:58N 60°33' E 004°53'0 0.0
2017-Dec-14 16:28N 60°33' E 004°53'0 0.0
2017-Dec-14 15:58N 60°33' E 004°53'0 0.0
2017-Dec-14 14:58N 60°33' E 004°53'0 0.0
2017-Dec-14 14:30N 60°33' E 004°53'0 0.0
2017-Dec-14 14:00N 60°33' E 004°53'0 0.0
2017-Dec-14 13:30N 60°33' E 004°53'0 0.0
2017-Dec-14 13:00N 60°33' E 004°53'0 0.0
2017-Dec-14 12:29N 60°33' E 004°53'0 0.0
2017-Dec-14 11:59N 60°33' E 004°53'0 0.0
2017-Dec-14 11:29N 60°33' E 004°53'3 7.3
2017-Dec-14 11:00N 60°36' E 004°53'611.6
2017-Dec-14 10:30N 60°42' E 004°49'611.8
2017-Dec-14 10:00N 60°47' E 004°44'611.4
2017-Dec-14 09:30N 60°53' E 004°46'611.9
2017-Dec-14 09:00N 60°59' E 004°46'713.2
2017-Dec-14 08:30N 61°03' E 004°57'611.9
2017-Dec-14 08:00N 61°09' E 005°01'510.5
2017-Dec-14 07:30N 61°13' E 004°56'5 9.8
2017-Dec-14 07:00N 61°18' E 004°59'5 9.3
2017-Dec-14 06:30N 61°23' E 005°01'611.4
2017-Dec-14 05:59N 61°28' E 004°59'611.4
2017-Dec-14 05:30N 61°34' E 004°59'611.1
2017-Dec-14 05:00N 61°39' E 004°59'611.6
2017-Dec-14 04:30N 61°45' E 004°60'612.6
2017-Dec-14 04:00N 61°49' E 005°10'3 7.0
2017-Dec-14 03:30N 61°52' E 005°12'5 9.2
2017-Dec-14 02:59N 61°57' E 005°08'511.2
2017-Dec-14 02:30N 62°02' E 005°09'611.3
2017-Dec-14 01:59N 62°07' E 005°04'5 9.7
2017-Dec-14 01:30N 62°12' E 005°03'510.2
2017-Dec-14 01:00N 62°13' E 005°14'510.9
2017-Dec-14 00:30N 62°11' E 005°24'611.4
2017-Dec-14 00:00N 62°11' E 005°36'612.8
2017-Dec-13 23:30N 62°13' E 005°50'612.0
2017-Dec-13 23:00N 62°17' E 005°59'612.1
2017-Dec-13 22:30N 62°21' E 006°07'611.5
2017-Dec-13 22:00N 62°26' E 006°02'511.1
2017-Dec-13 21:31N 62°31' E 006°09'611.6
2017-Dec-13 21:00N 62°36' E 006°16'510.7
2017-Dec-13 20:30N 62°39' E 006°24'612.0
2017-Dec-13 20:00N 62°44' E 006°31'612.2
2017-Dec-13 19:31N 62°50' E 006°38'612.0
2017-Dec-13 19:00N 62°55' E 006°45'611.7
2017-Dec-13 18:30N 62°59' E 006°54'611.6
2017-Dec-13 18:00N 63°01' E 007°06'611.4
2017-Dec-13 17:31N 63°03' E 007°17'611.0
2017-Dec-13 17:01N 63°06' E 007°28'611.1
2017-Dec-13 16:31N 63°07' E 007°40'4 7.3
2017-Dec-13 16:00N 63°06' E 007°48'0 0.0
2017-Dec-13 15:30N 63°06' E 007°48'0 0.0
2017-Dec-13 15:00N 63°06' E 007°48'0 0.0
2017-Dec-13 14:29N 63°06' E 007°48'0 0.2
2017-Dec-13 14:00N 63°06' E 007°48'4 8.5
2017-Dec-13 13:30N 63°03' E 007°41'611.9
2017-Dec-13 13:00N 62°58' E 007°47'611.4
2017-Dec-13 12:30N 62°59' E 007°60'611.3
2017-Dec-13 12:00N 62°54' E 008°07'611.2
2017-Dec-13 11:30N 62°49' E 008°12'611.9
2017-Dec-13 11:00N 62°46' E 008°23'611.7
2017-Dec-13 10:30N 62°42' E 008°32'1 2.1
2017-Dec-13 09:59N 62°41' E 008°33'0 0.0
2017-Dec-13 09:29N 62°41' E 008°33'0 0.0
2017-Dec-13 08:59N 62°41' E 008°33'0 0.0
2017-Dec-13 08:29N 62°41' E 008°33'0 0.0
2017-Dec-13 07:59N 62°41' E 008°33'0 0.0
2017-Dec-13 07:28N 62°41' E 008°33'0 0.0
2017-Dec-13 07:00N 62°41' E 008°33'4 8.0
2017-Dec-13 06:30N 62°44' E 008°28'611.9
2017-Dec-13 06:00N 62°48' E 008°18'611.4
2017-Dec-13 05:30N 62°52' E 008°08'611.5
2017-Dec-13 05:00N 62°57' E 008°04'511.1
2017-Dec-13 04:30N 62°58' E 007°53'3 6.9
2017-Dec-13 04:01N 63°01' E 007°48'511.0
2017-Dec-13 03:31N 63°05' E 007°55'611.3
2017-Dec-13 03:01N 63°10' E 007°48'4 8.0
2017-Dec-13 02:30N 63°13' E 007°53'5 9.8
2017-Dec-13 02:00N 63°15' E 008°03'510.4
2017-Dec-13 01:30N 63°18' E 008°13'510.2
2017-Dec-13 01:00N 63°21' E 008°21'510.8
2017-Dec-13 00:30N 63°24' E 008°31'511.0
2017-Dec-13 00:00N 63°26' E 008°43'611.3
2017-Dec-12 23:30N 63°28' E 008°55'511.0
2017-Dec-12 23:00N 63°30' E 009°06'510.9
2017-Dec-12 22:30N 63°33' E 009°17'510.8
2017-Dec-12 22:00N 63°36' E 009°27'510.1
2017-Dec-12 21:30N 63°41' E 009°29'5 9.8
2017-Dec-12 21:00N 63°46' E 009°32'4 8.3
2017-Dec-12 20:30N 63°49' E 009°38'0 0.3
2017-Dec-12 20:00N 63°49' E 009°38'0 0.0
2017-Dec-12 19:30N 63°49' E 009°38'0 0.0
2017-Dec-12 19:00N 63°49' E 009°38'0 0.0
2017-Dec-12 18:29N 63°49' E 009°38'0 0.0
2017-Dec-12 17:59N 63°49' E 009°38'0 0.0
2017-Dec-12 17:29N 63°49' E 009°38'0 0.0
2017-Dec-12 17:00N 63°49' E 009°38'3 6.6
2017-Dec-12 16:30N 63°47' E 009°33'611.7
2017-Dec-12 16:00N 63°41' E 009°30'611.2
2017-Dec-12 15:30N 63°35' E 009°27'611.9
2017-Dec-12 15:00N 63°32' E 009°15'612.6
2017-Dec-12 14:30N 63°29' E 009°03'611.9
2017-Dec-12 14:00N 63°27' E 008°51'611.9
2017-Dec-12 13:30N 63°25' E 008°38'611.8
2017-Dec-12 13:00N 63°22' E 008°26'611.8
2017-Dec-12 12:30N 63°19' E 008°16'612.2
2017-Dec-12 12:00N 63°15' E 008°05'612.0
2017-Dec-12 11:30N 63°12' E 007°53'611.6
2017-Dec-12 11:00N 63°09' E 007°42'611.7
2017-Dec-12 10:31N 63°06' E 007°32'611.4
2017-Dec-12 10:00N 63°03' E 007°20'511.0
2017-Dec-12 09:30N 63°01' E 007°09'510.9
2017-Dec-12 09:00N 62°60' E 006°58'612.1
2017-Dec-12 08:30N 62°56' E 006°48'612.4
2017-Dec-12 08:00N 62°50' E 006°40'612.2
2017-Dec-12 07:30N 62°45' E 006°33'611.8
2017-Dec-12 07:00N 62°40' E 006°26'611.3
2017-Dec-12 06:30N 62°36' E 006°17'511.2
2017-Dec-12 06:01N 62°32' E 006°10'510.6
2017-Dec-12 05:30N 62°27' E 006°03'511.2
2017-Dec-12 05:01N 62°22' E 006°07'510.2
2017-Dec-12 04:30N 62°18' E 006°01'511.2
2017-Dec-12 04:00N 62°13' E 005°54'510.5
2017-Dec-12 03:30N 62°12' E 005°43'510.0
2017-Dec-12 03:00N 62°11' E 005°33'510.1
2017-Dec-12 02:30N 62°10' E 005°22'510.5
2017-Dec-12 02:00N 62°14' E 005°14'510.2
2017-Dec-12 01:30N 62°12' E 005°03'510.0
2017-Dec-12 01:00N 62°07' E 005°04'611.4
2017-Dec-12 00:29N 62°02' E 005°09'611.2
2017-Dec-12 00:00N 61°56' E 005°08'5 9.3
2017-Dec-11 23:30N 61°52' E 005°13'3 6.6
2017-Dec-11 23:00N 61°49' E 005°11'510.6
2017-Dec-11 22:30N 61°46' E 005°02'510.3
2017-Dec-11 22:00N 61°41' E 004°58'510.7
2017-Dec-11 21:30N 61°36' E 004°58'510.7
2017-Dec-11 21:00N 61°31' E 005°00'510.9
2017-Dec-11 20:30N 61°26' E 004°58'611.3
2017-Dec-11 20:00N 61°20' E 005°03'4 8.1
2017-Dec-11 19:30N 61°17' E 004°57'4 8.9
2017-Dec-11 19:00N 61°13' E 004°58'611.1
2017-Dec-11 18:30N 61°08' E 005°02'510.0
2017-Dec-11 18:00N 61°03' E 004°57'510.5
2017-Dec-11 17:30N 60°60' E 004°48'510.2
2017-Dec-11 17:00N 60°55' E 004°46'510.6
2017-Dec-11 16:29N 60°50' E 004°45'611.7
2017-Dec-11 16:00N 60°44' E 004°48'612.2
2017-Dec-11 15:30N 60°39' E 004°53'510.8
2017-Dec-11 15:01N 60°33' E 004°54'0 0.6
2017-Dec-11 14:30N 60°33' E 004°53'0 0.0
2017-Dec-11 14:00N 60°33' E 004°53'0 0.0
2017-Dec-11 13:29N 60°33' E 004°53'0 0.0
2017-Dec-11 12:59N 60°33' E 004°53'0 0.0
2017-Dec-11 12:29N 60°33' E 004°53'0 0.0
2017-Dec-11 11:59N 60°33' E 004°53'0 0.0
2017-Dec-11 11:29N 60°33' E 004°53'0 0.0
2017-Dec-11 10:58N 60°33' E 004°53'0 0.0
2017-Dec-11 10:28N 60°33' E 004°53'0 0.0
2017-Dec-11 09:58N 60°33' E 004°53'0 0.0
2017-Dec-11 09:28N 60°33' E 004°53'0 0.0
2017-Dec-11 09:00N 60°33' E 004°53'0 0.0
2017-Dec-11 08:30N 60°33' E 004°53'0 0.0
2017-Dec-11 08:00N 60°33' E 004°53'0 0.0
2017-Dec-11 07:30N 60°33' E 004°53'0 0.0
2017-Dec-11 07:00N 60°33' E 004°53'4 7.8
2017-Dec-11 06:30N 60°37' E 004°53'5 9.2
2017-Dec-11 06:00N 60°41' E 004°50'4 8.6
2017-Dec-11 05:30N 60°45' E 004°46'4 8.4
2017-Dec-11 05:00N 60°49' E 004°44'5 9.1
2017-Dec-11 04:30N 60°54' E 004°46'4 9.0
2017-Dec-11 04:00N 60°58' E 004°45'4 9.0
2017-Dec-11 03:30N 61°01' E 004°51'510.1
2017-Dec-11 03:00N 61°05' E 004°59'5 9.6
2017-Dec-11 02:30N 61°09' E 005°01'5 8.9
2017-Dec-11 02:00N 61°13' E 004°56'4 8.5
2017-Dec-11 01:30N 61°18' E 004°57'4 8.2
2017-Dec-11 01:00N 61°21' E 005°02'5 9.0
2017-Dec-11 00:30N 61°25' E 004°58'5 9.5
2017-Dec-10 23:59N 61°30' E 004°59'4 8.9
2017-Dec-10 23:30N 61°34' E 004°58'4 8.8
2017-Dec-10 23:00N 61°38' E 004°59'4 9.0
2017-Dec-10 22:30N 61°43' E 004°57'5 9.5
2017-Dec-10 22:00N 61°47' E 005°03'510.5
2017-Dec-10 21:30N 61°50' E 005°12'3 6.0
2017-Dec-10 21:00N 61°52' E 005°12'4 8.4
2017-Dec-10 20:30N 61°56' E 005°07'5 9.5
2017-Dec-10 20:00N 62°01' E 005°09'5 9.6
2017-Dec-10 19:30N 62°05' E 005°06'4 8.6
2017-Dec-10 19:00N 62°09' E 005°02'4 7.6
2017-Dec-10 18:30N 62°13' E 005°06'5 9.4
2017-Dec-10 17:59N 62°12' E 005°16'4 9.1
2017-Dec-10 17:30N 62°12' E 005°26'510.8
2017-Dec-10 17:00N 62°11' E 005°37'611.8
2017-Dec-10 16:30N 62°12' E 005°49'510.0
2017-Dec-10 16:00N 62°16' E 005°57'510.1
2017-Dec-10 15:30N 62°20' E 006°05'4 8.3
2017-Dec-10 15:00N 62°24' E 006°04'4 8.8
2017-Dec-10 14:30N 62°28' E 006°04'510.9
2017-Dec-10 14:00N 62°29' E 006°16'4 6.7
2017-Dec-10 13:29N 62°29' E 006°23'0 0.0
2017-Dec-10 12:58N 62°29' E 006°23'0 0.0
2017-Dec-10 12:28N 62°29' E 006°23'0 0.0
2017-Dec-10 11:58N 62°29' E 006°23'0 0.0
2017-Dec-10 11:28N 62°29' E 006°23'0 0.0
2017-Dec-10 11:01N 62°29' E 006°23'0 0.0
2017-Dec-10 10:30N 62°29' E 006°23'0 0.0
2017-Dec-10 10:00N 62°29' E 006°23'0 0.0
2017-Dec-10 09:29N 62°29' E 006°23'0 0.0
2017-Dec-10 09:00N 62°29' E 006°23'0 0.0
2017-Dec-10 08:31N 62°29' E 006°23'0 0.0
2017-Dec-10 07:59N 62°29' E 006°23'0 0.0
2017-Dec-10 07:30N 62°29' E 006°23'0 0.4
2017-Dec-10 07:00N 62°29' E 006°23'4 8.1
2017-Dec-10 06:30N 62°29' E 006°15'5 9.7
2017-Dec-10 06:00N 62°28' E 006°05'510.3
2017-Dec-10 05:30N 62°23' E 006°06'5 9.8
2017-Dec-10 05:00N 62°18' E 006°03'611.3
2017-Dec-10 04:30N 62°14' E 005°55'510.1
2017-Dec-10 04:00N 62°12' E 005°45'510.0
2017-Dec-10 03:30N 62°11' E 005°34'5 9.1
2017-Dec-10 03:00N 62°11' E 005°25'4 8.2
2017-Dec-10 02:30N 62°12' E 005°16'4 8.7
2017-Dec-10 02:00N 62°13' E 005°07'4 8.6
2017-Dec-10 01:30N 62°09' E 005°02'4 9.1
2017-Dec-10 01:00N 62°05' E 005°06'5 9.5
2017-Dec-10 00:30N 62°01' E 005°09'611.0
2017-Dec-10 00:00N 61°55' E 005°07'510.6
2017-Dec-09 23:30N 61°52' E 005°16'5 9.4
2017-Dec-09 23:00N 61°49' E 005°09'612.0
2017-Dec-09 22:30N 61°45' E 004°59'510.9
2017-Dec-09 22:00N 61°39' E 004°59'510.3
2017-Dec-09 21:30N 61°34' E 004°59'510.2
2017-Dec-09 20:59N 61°29' E 004°59'510.2
2017-Dec-09 20:30N 61°24' E 004°60'510.9
2017-Dec-09 20:00N 61°19' E 005°04'5 9.9
2017-Dec-09 19:30N 61°16' E 004°55'5 9.9
2017-Dec-09 19:00N 61°12' E 005°01'610.8
2017-Dec-09 18:30N 61°06' E 005°02'510.5
2017-Dec-09 17:59N 61°02' E 004°55'510.5
2017-Dec-09 17:30N 60°59' E 004°47'5 9.4
2017-Dec-09 17:00N 60°54' E 004°46'5 9.1
2017-Dec-09 16:29N 60°50' E 004°45'4 8.0
2017-Dec-09 16:00N 60°46' E 004°47'5 8.9
2017-Dec-09 15:29N 60°42' E 004°50'510.2
2017-Dec-09 14:59N 60°37' E 004°54'4 7.8
2017-Dec-09 14:30N 60°33' E 004°53'0 0.0
2017-Dec-09 13:59N 60°33' E 004°53'0 0.0
2017-Dec-09 13:28N 60°33' E 004°53'0 0.0
2017-Dec-09 12:58N 60°33' E 004°53'0 0.0
2017-Dec-09 12:27N 60°33' E 004°53'0 0.0
2017-Dec-09 11:58N 60°33' E 004°53'0 0.0
2017-Dec-09 11:28N 60°33' E 004°53'0 0.0
2017-Dec-09 11:00N 60°33' E 004°53'0 0.0
2017-Dec-09 10:30N 60°33' E 004°53'0 0.0
2017-Dec-09 10:00N 60°33' E 004°53'0 0.0
2017-Dec-09 09:30N 60°33' E 004°53'0 0.0
2017-Dec-09 08:59N 60°33' E 004°53'0 0.0
2017-Dec-09 08:29N 60°33' E 004°53'0 0.0
2017-Dec-09 07:59N 60°33' E 004°53'0 0.0
2017-Dec-09 07:30N 60°33' E 004°53'0 0.4
2017-Dec-09 07:00N 60°33' E 004°53'0 0.6
2017-Dec-09 06:31N 60°33' E 004°54'510.8
2017-Dec-09 06:00N 60°39' E 004°51'511.0
2017-Dec-09 05:31N 60°44' E 004°47'611.3
2017-Dec-09 05:00N 60°49' E 004°44'5 9.4
2017-Dec-09 04:30N 60°54' E 004°46'510.3
2017-Dec-09 04:00N 60°59' E 004°46'5 9.2
2017-Dec-09 03:30N 61°02' E 004°53'510.3
2017-Dec-09 03:00N 61°04' E 005°02'4 8.5
2017-Dec-09 02:30N 61°07' E 005°10'2 3.7
2017-Dec-09 02:00N 61°06' E 005°13'2 3.9
2017-Dec-09 01:30N 61°05' E 005°17'2 4.2
2017-Dec-09 01:00N 61°04' E 005°21'1 1.3
2017-Dec-09 00:30N 61°04' E 005°22'3 5.5
2017-Dec-09 00:01N 61°05' E 005°17'510.3
2017-Dec-08 23:30N 61°08' E 005°08'0 0.6
2017-Dec-08 23:00N 61°08' E 005°08'2 3.5
2017-Dec-08 22:30N 61°07' E 005°10'2 3.2
2017-Dec-08 22:00N 61°06' E 005°13'2 4.0
2017-Dec-08 21:31N 61°05' E 005°16'2 3.6
2017-Dec-08 21:00N 61°04' E 005°20'4 7.8
2017-Dec-08 20:31N 61°06' E 005°13'4 7.7
2017-Dec-08 20:00N 61°09' E 005°07'2 3.6
2017-Dec-08 19:30N 61°07' E 005°09'2 3.7
2017-Dec-08 19:00N 61°06' E 005°12'2 3.3
2017-Dec-08 18:31N 61°07' E 005°09'1 2.0
2017-Dec-08 18:00N 61°08' E 005°08'2 3.6
2017-Dec-08 17:30N 61°06' E 005°07'3 6.2
2017-Dec-08 17:00N 61°09' E 005°06'611.8
2017-Dec-08 16:30N 61°13' E 004°57'4 8.3
2017-Dec-08 15:59N 61°17' E 004°57'4 8.0
2017-Dec-08 15:30N 61°21' E 005°02'611.3
2017-Dec-08 15:00N 61°26' E 004°58'610.9
2017-Dec-08 14:30N 61°31' E 005°00'510.5
2017-Dec-08 14:00N 61°36' E 004°58'611.1
2017-Dec-08 13:31N 61°42' E 004°57'510.7
2017-Dec-08 13:01N 61°46' E 005°03'510.1
2017-Dec-08 12:30N 61°49' E 005°12'3 6.1
2017-Dec-08 12:00N 61°52' E 005°13'5 9.4
2017-Dec-08 11:30N 61°56' E 005°07'510.5
2017-Dec-08 11:00N 62°01' E 005°09'510.4
2017-Dec-08 10:30N 62°06' E 005°05'5 9.9
2017-Dec-08 10:00N 62°11' E 005°02'3 6.6
2017-Dec-08 09:30N 62°13' E 005°06'3 6.2
2017-Dec-08 09:00N 62°14' E 005°13'3 5.4
2017-Dec-08 08:30N 62°12' E 005°17'3 6.2
2017-Dec-08 08:00N 62°10' E 005°22'5 8.9
2017-Dec-08 07:30N 62°12' E 005°31'4 8.8
2017-Dec-08 07:00N 62°11' E 005°41'5 9.9
2017-Dec-08 06:31N 62°13' E 005°51'510.4
2017-Dec-08 06:00N 62°16' E 005°59'510.7
2017-Dec-08 05:30N 62°20' E 006°06'510.5
2017-Dec-08 05:01N 62°25' E 006°03'5 9.5
2017-Dec-08 04:31N 62°29' E 006°08'510.5
2017-Dec-08 04:01N 62°34' E 006°12'510.6
2017-Dec-08 03:30N 62°38' E 006°21'510.1
2017-Dec-08 03:00N 62°42' E 006°28'510.7
2017-Dec-08 02:30N 62°46' E 006°34'510.6
2017-Dec-08 02:01N 62°51' E 006°40'510.3
2017-Dec-08 01:30N 62°55' E 006°46'5 9.3
2017-Dec-08 01:00N 62°59' E 006°52'5 9.4
2017-Dec-08 00:31N 63°00' E 007°02'510.1
2017-Dec-08 00:01N 63°02' E 007°12'510.0
2017-Dec-07 23:31N 63°04' E 007°22'5 9.8
2017-Dec-07 23:01N 63°07' E 007°32'510.3
2017-Dec-07 22:31N 63°10' E 007°41'510.5
2017-Dec-07 22:00N 63°12' E 007°51'510.6
2017-Dec-07 21:31N 63°15' E 008°01'510.5
2017-Dec-07 21:00N 63°17' E 008°12'510.4
2017-Dec-07 20:30N 63°21' E 008°20'611.3
2017-Dec-07 20:00N 63°24' E 008°31'611.4
2017-Dec-07 19:30N 63°26' E 008°43'611.6
2017-Dec-07 19:00N 63°28' E 008°55'611.6
2017-Dec-07 18:30N 63°30' E 009°07'611.7
2017-Dec-07 18:01N 63°33' E 009°18'611.7
2017-Dec-07 17:30N 63°37' E 009°28'510.5
2017-Dec-07 17:00N 63°42' E 009°31'511.1
2017-Dec-07 16:30N 63°48' E 009°34'510.8
2017-Dec-07 16:00N 63°52' E 009°41'510.2
2017-Dec-07 15:30N 63°56' E 009°47'510.0
2017-Dec-07 15:00N 64°01' E 009°47'510.0
2017-Dec-07 14:30N 64°05' E 009°55'510.5
2017-Dec-07 14:00N 64°08' E 010°05'5 9.5
2017-Dec-07 13:30N 64°12' E 010°11'510.2
2017-Dec-07 13:00N 64°15' E 010°20'4 8.9
2017-Dec-07 12:31N 64°19' E 010°25'4 8.0
2017-Dec-07 12:00N 64°23' E 010°27'4 8.2
2017-Dec-07 11:30N 64°27' E 010°26'5 9.3
2017-Dec-07 11:00N 64°31' E 010°30'5 9.6
2017-Dec-07 10:30N 64°35' E 010°37'5 9.7
2017-Dec-07 10:00N 64°39' E 010°45'5 9.9
2017-Dec-07 09:30N 64°43' E 010°52'510.3
2017-Dec-07 09:00N 64°46' E 011°01'510.7
2017-Dec-07 08:31N 64°50' E 011°10'5 9.3
2017-Dec-07 08:00N 64°53' E 011°18'510.0
2017-Dec-07 07:31N 64°56' E 011°26'510.3
2017-Dec-07 07:01N 64°60' E 011°36'510.3
2017-Dec-07 06:30N 65°03' E 011°44'5 9.6
2017-Dec-07 06:00N 65°08' E 011°49'5 9.9
2017-Dec-07 05:30N 65°12' E 011°53'510.4
2017-Dec-07 05:00N 65°17' E 011°58'510.1
2017-Dec-07 04:30N 65°22' E 012°02'4 8.4
2017-Dec-07 04:00N 65°25' E 011°57'5 9.9
2017-Dec-07 03:30N 65°30' E 012°00'510.5
2017-Dec-07 03:00N 65°34' E 012°07'510.5
2017-Dec-07 02:30N 65°39' E 012°13'611.0
2017-Dec-07 02:00N 65°44' E 012°17'611.2
2017-Dec-07 01:30N 65°48' E 012°27'611.4
2017-Dec-07 01:00N 65°53' E 012°35'611.4
2017-Dec-07 00:30N 65°57' E 012°44'510.2
2017-Dec-07 00:00N 65°57' E 012°57'612.0
2017-Dec-06 23:30N 65°54' E 013°09'3 5.6
2017-Dec-06 23:00N 65°51' E 013°11'0 0.0
2017-Dec-06 22:23N 65°51' E 013°11'0 0.0
2017-Dec-06 21:59N 65°51' E 013°11'0 0.0
2017-Dec-06 21:29N 65°51' E 013°11'0 0.0
2017-Dec-06 20:59N 65°51' E 013°11'  
Track history (hours):
 
Tides and Currents Weather Stations Pressure Air Temp Water Temp Dewpoint Dewpoint Depression Visibility Wind Speed Wind Dir Waves Ship Positions

Pioneer Knutsen

Last reported at 2017-Dec-16 06:30 UTC. Time now 2017-Dec-16 06:53 UTC.
Position N 65°44' E 012°18'.

Length 70 m; draft 3.6 m.

Type: Ship. MMSI: 259393000.

Date/timePositionNaut miles runAvg speedWind from/ knotsBaromVisibWave heightAir tempDewpointWater temp
2017-Dec-16 06:30N 65°44' E 012°18'612.7
2017-Dec-16 06:00N 65°39' E 012°13'612.4
2017-Dec-16 05:30N 65°33' E 012°05'612.3
2017-Dec-16 05:00N 65°28' E 011°58'510.9
2017-Dec-16 04:30N 65°22' E 012°00'5 9.4
2017-Dec-16 04:00N 65°18' E 011°59'612.3
2017-Dec-16 03:30N 65°12' E 011°53'612.4
2017-Dec-16 03:00N 65°06' E 011°48'612.2
2017-Dec-16 02:30N 65°01' E 011°41'611.6
2017-Dec-16 02:00N 64°57' E 011°31'611.9
2017-Dec-16 01:30N 64°54' E 011°20'611.2
2017-Dec-16 01:00N 64°50' E 011°10'612.4
2017-Dec-16 00:30N 64°45' E 011°00'612.0
2017-Dec-16 00:00N 64°41' E 010°49'612.5
2017-Dec-15 23:30N 64°37' E 010°40'612.2
2017-Dec-15 23:00N 64°32' E 010°31'611.9
2017-Dec-15 22:30N 64°26' E 010°27'611.2
2017-Dec-15 22:00N 64°21' E 010°27'611.2
2017-Dec-15 21:30N 64°16' E 010°19'611.7
2017-Dec-15 20:59N 64°11' E 010°10'612.1
2017-Dec-15 20:30N 64°07' E 010°02'612.3
2017-Dec-15 20:00N 64°03' E 009°50'611.5
2017-Dec-15 19:30N 63°58' E 009°47'611.4
2017-Dec-15 19:00N 63°52' E 009°43'612.4
2017-Dec-15 18:30N 63°47' E 009°34'612.1
2017-Dec-15 18:00N 63°42' E 009°30'611.6
2017-Dec-15 17:30N 63°36' E 009°27'612.0
2017-Dec-15 17:00N 63°33' E 009°16'612.6
2017-Dec-15 16:30N 63°30' E 009°04'612.1
2017-Dec-15 16:00N 63°27' E 008°51'612.0
2017-Dec-15 15:30N 63°25' E 008°39'612.1
2017-Dec-15 15:00N 63°22' E 008°27'612.3
2017-Dec-15 14:30N 63°19' E 008°16'612.2
2017-Dec-15 14:00N 63°15' E 008°05'612.3
2017-Dec-15 13:30N 63°12' E 007°53'611.8
2017-Dec-15 13:00N 63°09' E 007°42'612.4
2017-Dec-15 12:30N 63°06' E 007°30'612.1
2017-Dec-15 12:00N 63°03' E 007°19'612.5
2017-Dec-15 11:30N 63°01' E 007°05'612.5
2017-Dec-15 11:00N 62°59' E 006°52'612.3
2017-Dec-15 10:30N 62°54' E 006°45'612.8
2017-Dec-15 10:00N 62°48' E 006°37'612.6
2017-Dec-15 09:30N 62°43' E 006°30'612.8
2017-Dec-15 09:00N 62°38' E 006°21'612.3
2017-Dec-15 08:30N 62°34' E 006°12'611.5
2017-Dec-15 08:00N 62°29' E 006°05'510.9
2017-Dec-15 07:30N 62°23' E 006°06'510.1
2017-Dec-15 07:00N 62°18' E 006°03'612.0
2017-Dec-15 06:30N 62°14' E 005°55'611.7
2017-Dec-15 06:00N 62°11' E 005°43'611.3
2017-Dec-15 05:29N 62°12' E 005°31'510.6
2017-Dec-15 05:00N 62°11' E 005°20'511.1
2017-Dec-15 04:30N 62°14' E 005°10'510.1
2017-Dec-15 04:00N 62°09' E 005°04'1711.1
2017-Dec-15 02:30N 61°53' E 005°10'12 8.3
2017-Dec-15 01:00N 61°42' E 004°58'511.1
2017-Dec-15 00:30N 61°37' E 004°58'58 9.6
2017-Dec-14 18:30N 60°39' E 004°53'611.4
2017-Dec-14 18:00N 60°33' E 004°54'0 0.9
2017-Dec-14 17:29N 60°33' E 004°53'0 0.0
2017-Dec-14 16:58N 60°33' E 004°53'0 0.0
2017-Dec-14 16:28N 60°33' E 004°53'0 0.0
2017-Dec-14 15:58N 60°33' E 004°53'0 0.0
2017-Dec-14 14:58N 60°33' E 004°53'0 0.0
2017-Dec-14 14:30N 60°33' E 004°53'0 0.0
2017-Dec-14 14:00N 60°33' E 004°53'0 0.0
2017-Dec-14 13:30N 60°33' E 004°53'0 0.0
2017-Dec-14 13:00N 60°33' E 004°53'0 0.0
2017-Dec-14 12:29N 60°33' E 004°53'0 0.0
2017-Dec-14 11:59N 60°33' E 004°53'0 0.0
2017-Dec-14 11:29N 60°33' E 004°53'3 7.3
2017-Dec-14 11:00N 60°36' E 004°53'611.6
2017-Dec-14 10:30N 60°42' E 004°49'611.8
2017-Dec-14 10:00N 60°47' E 004°44'611.4
2017-Dec-14 09:30N 60°53' E 004°46'611.9
2017-Dec-14 09:00N 60°59' E 004°46'713.2
2017-Dec-14 08:30N 61°03' E 004°57'611.9
2017-Dec-14 08:00N 61°09' E 005°01'510.5
2017-Dec-14 07:30N 61°13' E 004°56'5 9.8
2017-Dec-14 07:00N 61°18' E 004°59'5 9.3
2017-Dec-14 06:30N 61°23' E 005°01'611.4
2017-Dec-14 05:59N 61°28' E 004°59'611.4
2017-Dec-14 05:30N 61°34' E 004°59'611.1
2017-Dec-14 05:00N 61°39' E 004°59'611.6
2017-Dec-14 04:30N 61°45' E 004°60'612.6
2017-Dec-14 04:00N 61°49' E 005°10'3 7.0
2017-Dec-14 03:30N 61°52' E 005°12'5 9.2
2017-Dec-14 02:59N 61°57' E 005°08'511.2
2017-Dec-14 02:30N 62°02' E 005°09'611.3
2017-Dec-14 01:59N 62°07' E 005°04'5 9.7
2017-Dec-14 01:30N 62°12' E 005°03'510.2
2017-Dec-14 01:00N 62°13' E 005°14'510.9
2017-Dec-14 00:30N 62°11' E 005°24'611.4
2017-Dec-14 00:00N 62°11' E 005°36'612.8
2017-Dec-13 23:30N 62°13' E 005°50'612.0
2017-Dec-13 23:00N 62°17' E 005°59'612.1
2017-Dec-13 22:30N 62°21' E 006°07'611.5
2017-Dec-13 22:00N 62°26' E 006°02'511.1
2017-Dec-13 21:31N 62°31' E 006°09'611.6
2017-Dec-13 21:00N 62°36' E 006°16'510.7
2017-Dec-13 20:30N 62°39' E 006°24'612.0
2017-Dec-13 20:00N 62°44' E 006°31'612.2
2017-Dec-13 19:31N 62°50' E 006°38'612.0
2017-Dec-13 19:00N 62°55' E 006°45'611.7
2017-Dec-13 18:30N 62°59' E 006°54'611.6
2017-Dec-13 18:00N 63°01' E 007°06'611.4
2017-Dec-13 17:31N 63°03' E 007°17'611.0
2017-Dec-13 17:01N 63°06' E 007°28'611.1
2017-Dec-13 16:31N 63°07' E 007°40'4 7.3
2017-Dec-13 16:00N 63°06' E 007°48'0 0.0
2017-Dec-13 15:30N 63°06' E 007°48'0 0.0
2017-Dec-13 15:00N 63°06' E 007°48'0 0.0
2017-Dec-13 14:29N 63°06' E 007°48'0 0.2
2017-Dec-13 14:00N 63°06' E 007°48'4 8.5
2017-Dec-13 13:30N 63°03' E 007°41'611.9
2017-Dec-13 13:00N 62°58' E 007°47'611.4
2017-Dec-13 12:30N 62°59' E 007°60'611.3
2017-Dec-13 12:00N 62°54' E 008°07'611.2
2017-Dec-13 11:30N 62°49' E 008°12'611.9
2017-Dec-13 11:00N 62°46' E 008°23'611.7
2017-Dec-13 10:30N 62°42' E 008°32'1 2.1
2017-Dec-13 09:59N 62°41' E 008°33'0 0.0
2017-Dec-13 09:29N 62°41' E 008°33'0 0.0
2017-Dec-13 08:59N 62°41' E 008°33'0 0.0
2017-Dec-13 08:29N 62°41' E 008°33'0 0.0
2017-Dec-13 07:59N 62°41' E 008°33'0 0.0
2017-Dec-13 07:28N 62°41' E 008°33'0 0.0
2017-Dec-13 07:00N 62°41' E 008°33'4 8.0
2017-Dec-13 06:30N 62°44' E 008°28'611.9
2017-Dec-13 06:00N 62°48' E 008°18'611.4
2017-Dec-13 05:30N 62°52' E 008°08'611.5
2017-Dec-13 05:00N 62°57' E 008°04'511.1
2017-Dec-13 04:30N 62°58' E 007°53'3 6.9
2017-Dec-13 04:01N 63°01' E 007°48'511.0
2017-Dec-13 03:31N 63°05' E 007°55'611.3
2017-Dec-13 03:01N 63°10' E 007°48'4 8.0
2017-Dec-13 02:30N 63°13' E 007°53'5 9.8
2017-Dec-13 02:00N 63°15' E 008°03'510.4
2017-Dec-13 01:30N 63°18' E 008°13'510.2
2017-Dec-13 01:00N 63°21' E 008°21'510.8
2017-Dec-13 00:30N 63°24' E 008°31'511.0
2017-Dec-13 00:00N 63°26' E 008°43'611.3
2017-Dec-12 23:30N 63°28' E 008°55'511.0
2017-Dec-12 23:00N 63°30' E 009°06'510.9
2017-Dec-12 22:30N 63°33' E 009°17'510.8
2017-Dec-12 22:00N 63°36' E 009°27'510.1
2017-Dec-12 21:30N 63°41' E 009°29'5 9.8
2017-Dec-12 21:00N 63°46' E 009°32'4 8.3
2017-Dec-12 20:30N 63°49' E 009°38'0 0.3
2017-Dec-12 20:00N 63°49' E 009°38'0 0.0
2017-Dec-12 19:30N 63°49' E 009°38'0 0.0
2017-Dec-12 19:00N 63°49' E 009°38'0 0.0
2017-Dec-12 18:29N 63°49' E 009°38'0 0.0
2017-Dec-12 17:59N 63°49' E 009°38'0 0.0
2017-Dec-12 17:29N 63°49' E 009°38'0 0.0
2017-Dec-12 17:00N 63°49' E 009°38'3 6.6
2017-Dec-12 16:30N 63°47' E 009°33'611.7
2017-Dec-12 16:00N 63°41' E 009°30'611.2
2017-Dec-12 15:30N 63°35' E 009°27'611.9
2017-Dec-12 15:00N 63°32' E 009°15'612.6
2017-Dec-12 14:30N 63°29' E 009°03'611.9
2017-Dec-12 14:00N 63°27' E 008°51'611.9
2017-Dec-12 13:30N 63°25' E 008°38'611.8
2017-Dec-12 13:00N 63°22' E 008°26'611.8
2017-Dec-12 12:30N 63°19' E 008°16'612.2
2017-Dec-12 12:00N 63°15' E 008°05'612.0
2017-Dec-12 11:30N 63°12' E 007°53'611.6
2017-Dec-12 11:00N 63°09' E 007°42'611.7
2017-Dec-12 10:31N 63°06' E 007°32'611.4
2017-Dec-12 10:00N 63°03' E 007°20'511.0
2017-Dec-12 09:30N 63°01' E 007°09'510.9
2017-Dec-12 09:00N 62°60' E 006°58'612.1
2017-Dec-12 08:30N 62°56' E 006°48'612.4
2017-Dec-12 08:00N 62°50' E 006°40'612.2
2017-Dec-12 07:30N 62°45' E 006°33'611.8
2017-Dec-12 07:00N 62°40' E 006°26'611.3
2017-Dec-12 06:30N 62°36' E 006°17'511.2
2017-Dec-12 06:01N 62°32' E 006°10'510.6
2017-Dec-12 05:30N 62°27' E 006°03'511.2
2017-Dec-12 05:01N 62°22' E 006°07'510.2
2017-Dec-12 04:30N 62°18' E 006°01'511.2
2017-Dec-12 04:00N 62°13' E 005°54'510.5
2017-Dec-12 03:30N 62°12' E 005°43'510.0
2017-Dec-12 03:00N 62°11' E 005°33'510.1
2017-Dec-12 02:30N 62°10' E 005°22'510.5
2017-Dec-12 02:00N 62°14' E 005°14'510.2
2017-Dec-12 01:30N 62°12' E 005°03'510.0
2017-Dec-12 01:00N 62°07' E 005°04'611.4
2017-Dec-12 00:29N 62°02' E 005°09'611.2
2017-Dec-12 00:00N 61°56' E 005°08'5 9.3
2017-Dec-11 23:30N 61°52' E 005°13'3 6.6
2017-Dec-11 23:00N 61°49' E 005°11'510.6
2017-Dec-11 22:30N 61°46' E 005°02'510.3
2017-Dec-11 22:00N 61°41' E 004°58'510.7
2017-Dec-11 21:30N 61°36' E 004°58'510.7
2017-Dec-11 21:00N 61°31' E 005°00'510.9
2017-Dec-11 20:30N 61°26' E 004°58'611.3
2017-Dec-11 20:00N 61°20' E 005°03'4 8.1
2017-Dec-11 19:30N 61°17' E 004°57'4 8.9
2017-Dec-11 19:00N 61°13' E 004°58'611.1
2017-Dec-11 18:30N 61°08' E 005°02'510.0
2017-Dec-11 18:00N 61°03' E 004°57'510.5
2017-Dec-11 17:30N 60°60' E 004°48'510.2
2017-Dec-11 17:00N 60°55' E 004°46'510.6
2017-Dec-11 16:29N 60°50' E 004°45'611.7
2017-Dec-11 16:00N 60°44' E 004°48'612.2
2017-Dec-11 15:30N 60°39' E 004°53'510.8
2017-Dec-11 15:01N 60°33' E 004°54'0 0.6
2017-Dec-11 14:30N 60°33' E 004°53'0 0.0
2017-Dec-11 14:00N 60°33' E 004°53'0 0.0
2017-Dec-11 13:29N 60°33' E 004°53'0 0.0
2017-Dec-11 12:59N 60°33' E 004°53'0 0.0
2017-Dec-11 12:29N 60°33' E 004°53'0 0.0
2017-Dec-11 11:59N 60°33' E 004°53'0 0.0
2017-Dec-11 11:29N 60°33' E 004°53'0 0.0
2017-Dec-11 10:58N 60°33' E 004°53'0 0.0
2017-Dec-11 10:28N 60°33' E 004°53'0 0.0
2017-Dec-11 09:58N 60°33' E 004°53'0 0.0
2017-Dec-11 09:28N 60°33' E 004°53'0 0.0
2017-Dec-11 09:00N 60°33' E 004°53'0 0.0
2017-Dec-11 08:30N 60°33' E 004°53'0 0.0
2017-Dec-11 08:00N 60°33' E 004°53'0 0.0
2017-Dec-11 07:30N 60°33' E 004°53'0 0.0
2017-Dec-11 07:00N 60°33' E 004°53'4 7.8
2017-Dec-11 06:30N 60°37' E 004°53'5 9.2
2017-Dec-11 06:00N 60°41' E 004°50'4 8.6
2017-Dec-11 05:30N 60°45' E 004°46'4 8.4
2017-Dec-11 05:00N 60°49' E 004°44'5 9.1
2017-Dec-11 04:30N 60°54' E 004°46'4 9.0
2017-Dec-11 04:00N 60°58' E 004°45'4 9.0
2017-Dec-11 03:30N 61°01' E 004°51'510.1
2017-Dec-11 03:00N 61°05' E 004°59'5 9.6
2017-Dec-11 02:30N 61°09' E 005°01'5 8.9
2017-Dec-11 02:00N 61°13' E 004°56'4 8.5
2017-Dec-11 01:30N 61°18' E 004°57'4 8.2
2017-Dec-11 01:00N 61°21' E 005°02'5 9.0
2017-Dec-11 00:30N 61°25' E 004°58'5 9.5
2017-Dec-10 23:59N 61°30' E 004°59'4 8.9
2017-Dec-10 23:30N 61°34' E 004°58'4 8.8
2017-Dec-10 23:00N 61°38' E 004°59'4 9.0
2017-Dec-10 22:30N 61°43' E 004°57'5 9.5
2017-Dec-10 22:00N 61°47' E 005°03'510.5
2017-Dec-10 21:30N 61°50' E 005°12'3 6.0
2017-Dec-10 21:00N 61°52' E 005°12'4 8.4
2017-Dec-10 20:30N 61°56' E 005°07'5 9.5
2017-Dec-10 20:00N 62°01' E 005°09'5 9.6
2017-Dec-10 19:30N 62°05' E 005°06'4 8.6
2017-Dec-10 19:00N 62°09' E 005°02'4 7.6
2017-Dec-10 18:30N 62°13' E 005°06'5 9.4
2017-Dec-10 17:59N 62°12' E 005°16'4 9.1
2017-Dec-10 17:30N 62°12' E 005°26'510.8
2017-Dec-10 17:00N 62°11' E 005°37'611.8
2017-Dec-10 16:30N 62°12' E 005°49'510.0
2017-Dec-10 16:00N 62°16' E 005°57'510.1
2017-Dec-10 15:30N 62°20' E 006°05'4 8.3
2017-Dec-10 15:00N 62°24' E 006°04'4 8.8
2017-Dec-10 14:30N 62°28' E 006°04'510.9
2017-Dec-10 14:00N 62°29' E 006°16'4 6.7
2017-Dec-10 13:29N 62°29' E 006°23'0 0.0
2017-Dec-10 12:58N 62°29' E 006°23'0 0.0
2017-Dec-10 12:28N 62°29' E 006°23'0 0.0
2017-Dec-10 11:58N 62°29' E 006°23'0 0.0
2017-Dec-10 11:28N 62°29' E 006°23'0 0.0
2017-Dec-10 11:01N 62°29' E 006°23'0 0.0
2017-Dec-10 10:30N 62°29' E 006°23'0 0.0
2017-Dec-10 10:00N 62°29' E 006°23'0 0.0
2017-Dec-10 09:29N 62°29' E 006°23'0 0.0
2017-Dec-10 09:00N 62°29' E 006°23'0 0.0
2017-Dec-10 08:31N 62°29' E 006°23'0 0.0
2017-Dec-10 07:59N 62°29' E 006°23'0 0.0
2017-Dec-10 07:30N 62°29' E 006°23'0 0.4
2017-Dec-10 07:00N 62°29' E 006°23'4 8.1
2017-Dec-10 06:30N 62°29' E 006°15'5 9.7
2017-Dec-10 06:00N 62°28' E 006°05'510.3
2017-Dec-10 05:30N 62°23' E 006°06'5 9.8
2017-Dec-10 05:00N 62°18' E 006°03'611.3
2017-Dec-10 04:30N 62°14' E 005°55'510.1
2017-Dec-10 04:00N 62°12' E 005°45'510.0
2017-Dec-10 03:30N 62°11' E 005°34'5 9.1
2017-Dec-10 03:00N 62°11' E 005°25'4 8.2
2017-Dec-10 02:30N 62°12' E 005°16'4 8.7
2017-Dec-10 02:00N 62°13' E 005°07'4 8.6
2017-Dec-10 01:30N 62°09' E 005°02'4 9.1
2017-Dec-10 01:00N 62°05' E 005°06'5 9.5
2017-Dec-10 00:30N 62°01' E 005°09'611.0
2017-Dec-10 00:00N 61°55' E 005°07'510.6
2017-Dec-09 23:30N 61°52' E 005°16'5 9.4
2017-Dec-09 23:00N 61°49' E 005°09'612.0
2017-Dec-09 22:30N 61°45' E 004°59'510.9
2017-Dec-09 22:00N 61°39' E 004°59'510.3
2017-Dec-09 21:30N 61°34' E 004°59'510.2
2017-Dec-09 20:59N 61°29' E 004°59'510.2
2017-Dec-09 20:30N 61°24' E 004°60'510.9
2017-Dec-09 20:00N 61°19' E 005°04'5 9.9
2017-Dec-09 19:30N 61°16' E 004°55'5 9.9
2017-Dec-09 19:00N 61°12' E 005°01'610.8
2017-Dec-09 18:30N 61°06' E 005°02'510.5
2017-Dec-09 17:59N 61°02' E 004°55'510.5
2017-Dec-09 17:30N 60°59' E 004°47'5 9.4
2017-Dec-09 17:00N 60°54' E 004°46'5 9.1
2017-Dec-09 16:29N 60°50' E 004°45'4 8.0
2017-Dec-09 16:00N 60°46' E 004°47'5 8.9
2017-Dec-09 15:29N 60°42' E 004°50'510.2
2017-Dec-09 14:59N 60°37' E 004°54'4 7.8
2017-Dec-09 14:30N 60°33' E 004°53'0 0.0
2017-Dec-09 13:59N 60°33' E 004°53'0 0.0
2017-Dec-09 13:28N 60°33' E 004°53'0 0.0
2017-Dec-09 12:58N 60°33' E 004°53'0 0.0
2017-Dec-09 12:27N 60°33' E 004°53'0 0.0
2017-Dec-09 11:58N 60°33' E 004°53'0 0.0
2017-Dec-09 11:28N 60°33' E 004°53'0 0.0
2017-Dec-09 11:00N 60°33' E 004°53'0 0.0
2017-Dec-09 10:30N 60°33' E 004°53'0 0.0
2017-Dec-09 10:00N 60°33' E 004°53'0 0.0
2017-Dec-09 09:30N 60°33' E 004°53'0 0.0
2017-Dec-09 08:59N 60°33' E 004°53'0 0.0
2017-Dec-09 08:29N 60°33' E 004°53'0 0.0
2017-Dec-09 07:59N 60°33' E 004°53'0 0.0
2017-Dec-09 07:30N 60°33' E 004°53'0 0.4
2017-Dec-09 07:00N 60°33' E 004°53'0 0.6
2017-Dec-09 06:31N 60°33' E 004°54'510.8
2017-Dec-09 06:00N 60°39' E 004°51'511.0
2017-Dec-09 05:31N 60°44' E 004°47'611.3
2017-Dec-09 05:00N 60°49' E 004°44'5 9.4
2017-Dec-09 04:30N 60°54' E 004°46'510.3
2017-Dec-09 04:00N 60°59' E 004°46'5 9.2
2017-Dec-09 03:30N 61°02' E 004°53'510.3
2017-Dec-09 03:00N 61°04' E 005°02'4 8.5
2017-Dec-09 02:30N 61°07' E 005°10'2 3.7
2017-Dec-09 02:00N 61°06' E 005°13'2 3.9
2017-Dec-09 01:30N 61°05' E 005°17'2 4.2
2017-Dec-09 01:00N 61°04' E 005°21'1 1.3
2017-Dec-09 00:30N 61°04' E 005°22'3 5.5
2017-Dec-09 00:01N 61°05' E 005°17'510.3
2017-Dec-08 23:30N 61°08' E 005°08'0 0.6
2017-Dec-08 23:00N 61°08' E 005°08'2 3.5
2017-Dec-08 22:30N 61°07' E 005°10'2 3.2
2017-Dec-08 22:00N 61°06' E 005°13'2 4.0
2017-Dec-08 21:31N 61°05' E 005°16'2 3.6
2017-Dec-08 21:00N 61°04' E 005°20'4 7.8
2017-Dec-08 20:31N 61°06' E 005°13'4 7.7
2017-Dec-08 20:00N 61°09' E 005°07'2 3.6
2017-Dec-08 19:30N 61°07' E 005°09'2 3.7
2017-Dec-08 19:00N 61°06' E 005°12'2 3.3
2017-Dec-08 18:31N 61°07' E 005°09'1 2.0
2017-Dec-08 18:00N 61°08' E 005°08'2 3.6
2017-Dec-08 17:30N 61°06' E 005°07'3 6.2
2017-Dec-08 17:00N 61°09' E 005°06'611.8
2017-Dec-08 16:30N 61°13' E 004°57'4 8.3
2017-Dec-08 15:59N 61°17' E 004°57'4 8.0
2017-Dec-08 15:30N 61°21' E 005°02'611.3
2017-Dec-08 15:00N 61°26' E 004°58'610.9
2017-Dec-08 14:30N 61°31' E 005°00'510.5
2017-Dec-08 14:00N 61°36' E 004°58'611.1
2017-Dec-08 13:31N 61°42' E 004°57'510.7
2017-Dec-08 13:01N 61°46' E 005°03'510.1
2017-Dec-08 12:30N 61°49' E 005°12'3 6.1
2017-Dec-08 12:00N 61°52' E 005°13'5 9.4
2017-Dec-08 11:30N 61°56' E 005°07'510.5
2017-Dec-08 11:00N 62°01' E 005°09'510.4
2017-Dec-08 10:30N 62°06' E 005°05'5 9.9
2017-Dec-08 10:00N 62°11' E 005°02'3 6.6
2017-Dec-08 09:30N 62°13' E 005°06'3 6.2
2017-Dec-08 09:00N 62°14' E 005°13'3 5.4
2017-Dec-08 08:30N 62°12' E 005°17'3 6.2
2017-Dec-08 08:00N 62°10' E 005°22'5 8.9
2017-Dec-08 07:30N 62°12' E 005°31'4 8.8
2017-Dec-08 07:00N 62°11' E 005°41'5 9.9
2017-Dec-08 06:31N 62°13' E 005°51'510.4
2017-Dec-08 06:00N 62°16' E 005°59'510.7
2017-Dec-08 05:30N 62°20' E 006°06'510.5
2017-Dec-08 05:01N 62°25' E 006°03'5 9.5
2017-Dec-08 04:31N 62°29' E 006°08'510.5
2017-Dec-08 04:01N 62°34' E 006°12'510.6
2017-Dec-08 03:30N 62°38' E 006°21'510.1
2017-Dec-08 03:00N 62°42' E 006°28'510.7
2017-Dec-08 02:30N 62°46' E 006°34'510.6
2017-Dec-08 02:01N 62°51' E 006°40'510.3
2017-Dec-08 01:30N 62°55' E 006°46'5 9.3
2017-Dec-08 01:00N 62°59' E 006°52'5 9.4
2017-Dec-08 00:31N 63°00' E 007°02'510.1
2017-Dec-08 00:01N 63°02' E 007°12'510.0
2017-Dec-07 23:31N 63°04' E 007°22'5 9.8
2017-Dec-07 23:01N 63°07' E 007°32'510.3
2017-Dec-07 22:31N 63°10' E 007°41'510.5
2017-Dec-07 22:00N 63°12' E 007°51'510.6
2017-Dec-07 21:31N 63°15' E 008°01'510.5
2017-Dec-07 21:00N 63°17' E 008°12'510.4
2017-Dec-07 20:30N 63°21' E 008°20'611.3
2017-Dec-07 20:00N 63°24' E 008°31'611.4
2017-Dec-07 19:30N 63°26' E 008°43'611.6
2017-Dec-07 19:00N 63°28' E 008°55'611.6
2017-Dec-07 18:30N 63°30' E 009°07'611.7
2017-Dec-07 18:01N 63°33' E 009°18'611.7
2017-Dec-07 17:30N 63°37' E 009°28'510.5
2017-Dec-07 17:00N 63°42' E 009°31'511.1
2017-Dec-07 16:30N 63°48' E 009°34'510.8
2017-Dec-07 16:00N 63°52' E 009°41'510.2
2017-Dec-07 15:30N 63°56' E 009°47'510.0
2017-Dec-07 15:00N 64°01' E 009°47'510.0
2017-Dec-07 14:30N 64°05' E 009°55'510.5
2017-Dec-07 14:00N 64°08' E 010°05'5 9.5
2017-Dec-07 13:30N 64°12' E 010°11'510.2
2017-Dec-07 13:00N 64°15' E 010°20'4 8.9
2017-Dec-07 12:31N 64°19' E 010°25'4 8.0
2017-Dec-07 12:00N 64°23' E 010°27'4 8.2
2017-Dec-07 11:30N 64°27' E 010°26'5 9.3
2017-Dec-07 11:00N 64°31' E 010°30'5 9.6
2017-Dec-07 10:30N 64°35' E 010°37'5 9.7
2017-Dec-07 10:00N 64°39' E 010°45'5 9.9
2017-Dec-07 09:30N 64°43' E 010°52'510.3
2017-Dec-07 09:00N 64°46' E 011°01'510.7
2017-Dec-07 08:31N 64°50' E 011°10'5 9.3
2017-Dec-07 08:00N 64°53' E 011°18'510.0
2017-Dec-07 07:31N 64°56' E 011°26'510.3
2017-Dec-07 07:01N 64°60' E 011°36'510.3
2017-Dec-07 06:30N 65°03' E 011°44'5 9.6
2017-Dec-07 06:00N 65°08' E 011°49'5 9.9
2017-Dec-07 05:30N 65°12' E 011°53'510.4
2017-Dec-07 05:00N 65°17' E 011°58'510.1
2017-Dec-07 04:30N 65°22' E 012°02'4 8.4
2017-Dec-07 04:00N 65°25' E 011°57'5 9.9
2017-Dec-07 03:30N 65°30' E 012°00'510.5
2017-Dec-07 03:00N 65°34' E 012°07'510.5
2017-Dec-07 02:30N 65°39' E 012°13'611.0
2017-Dec-07 02:00N 65°44' E 012°17'611.2
2017-Dec-07 01:30N 65°48' E 012°27'611.4
2017-Dec-07 01:00N 65°53' E 012°35'611.4
2017-Dec-07 00:30N 65°57' E 012°44'510.2
2017-Dec-07 00:00N 65°57' E 012°57'612.0
2017-Dec-06 23:30N 65°54' E 013°09'3 5.6
2017-Dec-06 23:00N 65°51' E 013°11'0 0.0
2017-Dec-06 22:23N 65°51' E 013°11'0 0.0
2017-Dec-06 21:59N 65°51' E 013°11'0 0.0
2017-Dec-06 21:29N 65°51' E 013°11'0 0.0
2017-Dec-06 20:59N 65°51' E 013°11'  

Dump ship's entire track history